Dahlia — 3FND5 — position and weather

sailwx.info

Track history (hours):
 
Tides and Currents Weather Stations Pressure Air Temp Water Temp Dewpoint Dewpoint Depression Visibility Wind Speed Wind Dir Waves Ship Positions

Dahlia

Last reported at 2017-Nov-24 04:20 UTC. Time now 2017-Nov-24 05:44 UTC.
Position N 33°04' W 011°46'.

Length 145 m; draft 8.9 m.

Type: Cargo ship. MMSI: 352515000.

Date/timePositionNaut miles runAvg speedWind from/ knotsBaromVisibWave heightAir tempDewpointWater temp
2017-Nov-24 04:20N 33°04' W 011°46'411.3
2017-Nov-24 04:00N 33°08' W 011°45'611.4
2017-Nov-24 03:31N 33°14' W 011°44'811.7
2017-Nov-24 02:50N 33°21' W 011°42'411.6
2017-Nov-24 02:31N 33°25' W 011°41'611.5
2017-Nov-24 01:58N 33°31' W 011°38'8611.0
2017-Nov-23 18:10N 34°52' W 011°05'211.0
2017-Nov-23 18:00N 34°54' W 011°05'17110.4
2017-Nov-23 01:29N 37°42' W 010°22'1910.8
2017-Nov-22 23:43N 38°01' W 010°21'4810.7
2017-Nov-22 19:11N 38°50' W 010°18'  
2017-Nov-20 00:29N 49°31' W 004°07'612.8
2017-Nov-20 00:00N 49°35' W 003°58'712.9
2017-Nov-19 23:29N 49°38' W 003°50'612.7
2017-Nov-19 23:00N 49°41' W 003°41'712.4
2017-Nov-19 22:24N 49°45' W 003°31'511.9
2017-Nov-19 21:57N 49°47' W 003°24'511.5
2017-Nov-19 21:30N 49°50' W 003°17'511.0
2017-Nov-19 21:00N 49°53' W 003°10'510.4
2017-Nov-19 20:30N 49°55' W 003°03'510.2
2017-Nov-19 20:00N 49°58' W 002°56'510.0
2017-Nov-19 19:29N 49°59' W 002°48'510.0
2017-Nov-19 19:00N 50°01' W 002°41'610.2
2017-Nov-19 18:23N 50°02' W 002°32'2912.2
2017-Nov-19 16:02N 50°11' W 001°49'514.5
2017-Nov-19 15:42N 50°12' W 001°42'414.8
2017-Nov-19 15:24N 50°14' W 001°35'615.1
2017-Nov-19 15:00N 50°15' W 001°26'4114.3
2017-Nov-19 12:09N 50°27' W 000°24'212.6
2017-Nov-19 11:59N 50°28' W 000°21'612.3
2017-Nov-19 11:30N 50°29' W 000°13'611.7
2017-Nov-19 11:00N 50°31' W 000°04'611.1
2017-Nov-19 10:30N 50°32' E 000°05'510.7
2017-Nov-19 10:01N 50°33' E 000°13'510.2
2017-Nov-19 09:30N 50°35' E 000°21'510.0
2017-Nov-19 09:00N 50°36' E 000°28'510.5
2017-Nov-19 08:30N 50°38' E 000°36'611.4
2017-Nov-19 08:00N 50°42' E 000°43'612.3
2017-Nov-19 07:31N 50°46' E 000°50'713.2
2017-Nov-19 07:00N 50°49' E 000°59'713.8
2017-Nov-19 06:28N 50°54' E 001°08'614.0
2017-Nov-19 06:00N 50°59' E 001°15'714.1
2017-Nov-19 05:31N 51°03' E 001°24'713.5
2017-Nov-19 05:00N 51°07' E 001°33'612.7
2017-Nov-19 04:30N 51°11' E 001°41'611.8
2017-Nov-19 04:01N 51°15' E 001°47'611.4
2017-Nov-19 03:30N 51°20' E 001°51'510.9
2017-Nov-19 03:01N 51°25' E 001°56'510.5
2017-Nov-19 02:30N 51°30' E 002°00'510.4
2017-Nov-19 02:00N 51°33' E 002°06'510.4
2017-Nov-19 01:30N 51°37' E 002°11'910.3
2017-Nov-19 00:36N 51°44' E 002°21'210.7
2017-Nov-19 00:25N 51°46' E 002°23'237 9.4
2017-Nov-17 23:17N 54°02' E 007°46'310.2
2017-Nov-17 23:00N 54°01' E 007°51'5 9.8
2017-Nov-17 22:30N 54°01' E 007°59'5 9.6
2017-Nov-17 21:59N 54°01' E 008°08'5 9.4
2017-Nov-17 21:30N 54°01' E 008°15'4 8.8
2017-Nov-17 21:00N 53°60' E 008°23'4 8.2
2017-Nov-17 20:30N 53°59' E 008°29'4 8.1
2017-Nov-17 20:01N 53°58' E 008°36'5 9.8
2017-Nov-17 19:30N 53°54' E 008°42'611.9
2017-Nov-17 19:00N 53°50' E 008°50'713.8
2017-Nov-17 18:30N 53°52' E 009°01'5 9.8
2017-Nov-17 18:00N 53°54' E 009°09'0 0.1
2017-Nov-17 17:30N 53°54' E 009°09'0 0.6
2017-Nov-17 17:00N 53°54' E 009°09'2 4.8
2017-Nov-17 16:31N 53°56' E 009°12'3 6.7
2017-Nov-17 16:00N 53°58' E 009°16'3 6.5
2017-Nov-17 15:30N 54°01' E 009°18'3 6.5
2017-Nov-17 15:01N 54°04' E 009°19'4 7.0
2017-Nov-17 14:29N 54°08' E 009°20'3 6.5
2017-Nov-17 14:01N 54°10' E 009°24'3 6.8
2017-Nov-17 13:30N 54°11' E 009°30'2 4.6
2017-Nov-17 13:00N 54°12' E 009°33'1 1.2
2017-Nov-17 12:30N 54°12' E 009°34'3 5.7
2017-Nov-17 12:00N 54°15' E 009°37'3 5.9
2017-Nov-17 11:30N 54°17' E 009°39'3 5.5
2017-Nov-17 11:00N 54°19' E 009°43'3 6.8
2017-Nov-17 10:30N 54°21' E 009°47'3 6.0
2017-Nov-17 09:56N 54°21' E 009°53'0 0.2
2017-Nov-17 09:28N 54°21' E 009°53'22 3.6
2017-Nov-17 03:20N 54°32' E 010°26'411.4
2017-Nov-17 02:59N 54°34' E 010°32'511.3
2017-Nov-17 02:31N 54°35' E 010°41'611.5
2017-Nov-17 02:00N 54°35' E 010°51'611.4
2017-Nov-17 01:30N 54°36' E 011°01'611.3
2017-Nov-17 01:00N 54°36' E 011°11'611.1
2017-Nov-17 00:30N 54°33' E 011°19'611.2
2017-Nov-17 00:01N 54°31' E 011°28'611.5
2017-Nov-16 23:30N 54°29' E 011°37'611.3
2017-Nov-16 23:00N 54°26' E 011°46'511.0
2017-Nov-16 22:31N 54°26' E 011°55'511.0
2017-Nov-16 22:00N 54°26' E 012°05'7310.6
2017-Nov-16 15:08N 55°02' E 013°55'1011.1
2017-Nov-16 14:15N 55°07' E 014°09'411.5
2017-Nov-16 13:53N 55°10' E 014°14'511.5
2017-Nov-16 13:26N 55°14' E 014°20'511.6
2017-Nov-16 12:58N 55°19' E 014°26'511.8
2017-Nov-16 12:31N 55°23' E 014°31'611.5
2017-Nov-16 11:57N 55°27' E 014°40'511.6
2017-Nov-16 11:30N 55°30' E 014°48'611.5
2017-Nov-16 10:59N 55°32' E 014°57'511.4
2017-Nov-16 10:30N 55°34' E 015°06'611.6
2017-Nov-16 10:00N 55°37' E 015°16'611.6
2017-Nov-16 09:30N 55°38' E 015°26'611.9
2017-Nov-16 09:00N 55°40' E 015°36'611.9
2017-Nov-16 08:30N 55°41' E 015°46'612.2
2017-Nov-16 08:00N 55°43' E 015°56'612.4
2017-Nov-16 07:31N 55°44' E 016°07'612.2
2017-Nov-16 07:00N 55°46' E 016°18'611.7
2017-Nov-16 06:31N 55°47' E 016°28'611.6
2017-Nov-16 05:59N 55°49' E 016°38'1511.6
2017-Nov-16 04:43N 55°49' E 017°04'1311.5
2017-Nov-16 03:38N 55°48' E 017°27'  
Track history (hours):
 
Tides and Currents Weather Stations Pressure Air Temp Water Temp Dewpoint Dewpoint Depression Visibility Wind Speed Wind Dir Waves Ship Positions

Dahlia

Last reported at 2017-Nov-24 04:20 UTC. Time now 2017-Nov-24 05:44 UTC.
Position N 33°04' W 011°46'.

Length 145 m; draft 8.9 m.

Type: Cargo ship. MMSI: 352515000.

Date/timePositionNaut miles runAvg speedWind from/ knotsBaromVisibWave heightAir tempDewpointWater temp
2017-Nov-24 04:20N 33°04' W 011°46'411.3
2017-Nov-24 04:00N 33°08' W 011°45'611.4
2017-Nov-24 03:31N 33°14' W 011°44'811.7
2017-Nov-24 02:50N 33°21' W 011°42'411.6
2017-Nov-24 02:31N 33°25' W 011°41'611.5
2017-Nov-24 01:58N 33°31' W 011°38'8611.0
2017-Nov-23 18:10N 34°52' W 011°05'211.0
2017-Nov-23 18:00N 34°54' W 011°05'17110.4
2017-Nov-23 01:29N 37°42' W 010°22'1910.8
2017-Nov-22 23:43N 38°01' W 010°21'4810.7
2017-Nov-22 19:11N 38°50' W 010°18'  
2017-Nov-20 00:29N 49°31' W 004°07'612.8
2017-Nov-20 00:00N 49°35' W 003°58'712.9
2017-Nov-19 23:29N 49°38' W 003°50'612.7
2017-Nov-19 23:00N 49°41' W 003°41'712.4
2017-Nov-19 22:24N 49°45' W 003°31'511.9
2017-Nov-19 21:57N 49°47' W 003°24'511.5
2017-Nov-19 21:30N 49°50' W 003°17'511.0
2017-Nov-19 21:00N 49°53' W 003°10'510.4
2017-Nov-19 20:30N 49°55' W 003°03'510.2
2017-Nov-19 20:00N 49°58' W 002°56'510.0
2017-Nov-19 19:29N 49°59' W 002°48'510.0
2017-Nov-19 19:00N 50°01' W 002°41'610.2
2017-Nov-19 18:23N 50°02' W 002°32'2912.2
2017-Nov-19 16:02N 50°11' W 001°49'514.5
2017-Nov-19 15:42N 50°12' W 001°42'414.8
2017-Nov-19 15:24N 50°14' W 001°35'615.1
2017-Nov-19 15:00N 50°15' W 001°26'4114.3
2017-Nov-19 12:09N 50°27' W 000°24'212.6
2017-Nov-19 11:59N 50°28' W 000°21'612.3
2017-Nov-19 11:30N 50°29' W 000°13'611.7
2017-Nov-19 11:00N 50°31' W 000°04'611.1
2017-Nov-19 10:30N 50°32' E 000°05'510.7
2017-Nov-19 10:01N 50°33' E 000°13'510.2
2017-Nov-19 09:30N 50°35' E 000°21'510.0
2017-Nov-19 09:00N 50°36' E 000°28'510.5
2017-Nov-19 08:30N 50°38' E 000°36'611.4
2017-Nov-19 08:00N 50°42' E 000°43'612.3
2017-Nov-19 07:31N 50°46' E 000°50'713.2
2017-Nov-19 07:00N 50°49' E 000°59'713.8
2017-Nov-19 06:28N 50°54' E 001°08'614.0
2017-Nov-19 06:00N 50°59' E 001°15'714.1
2017-Nov-19 05:31N 51°03' E 001°24'713.5
2017-Nov-19 05:00N 51°07' E 001°33'612.7
2017-Nov-19 04:30N 51°11' E 001°41'611.8
2017-Nov-19 04:01N 51°15' E 001°47'611.4
2017-Nov-19 03:30N 51°20' E 001°51'510.9
2017-Nov-19 03:01N 51°25' E 001°56'510.5
2017-Nov-19 02:30N 51°30' E 002°00'510.4
2017-Nov-19 02:00N 51°33' E 002°06'510.4
2017-Nov-19 01:30N 51°37' E 002°11'910.3
2017-Nov-19 00:36N 51°44' E 002°21'210.7
2017-Nov-19 00:25N 51°46' E 002°23'237 9.4
2017-Nov-17 23:17N 54°02' E 007°46'310.2
2017-Nov-17 23:00N 54°01' E 007°51'5 9.8
2017-Nov-17 22:30N 54°01' E 007°59'5 9.6
2017-Nov-17 21:59N 54°01' E 008°08'5 9.4
2017-Nov-17 21:30N 54°01' E 008°15'4 8.8
2017-Nov-17 21:00N 53°60' E 008°23'4 8.2
2017-Nov-17 20:30N 53°59' E 008°29'4 8.1
2017-Nov-17 20:01N 53°58' E 008°36'5 9.8
2017-Nov-17 19:30N 53°54' E 008°42'611.9
2017-Nov-17 19:00N 53°50' E 008°50'713.8
2017-Nov-17 18:30N 53°52' E 009°01'5 9.8
2017-Nov-17 18:00N 53°54' E 009°09'0 0.1
2017-Nov-17 17:30N 53°54' E 009°09'0 0.6
2017-Nov-17 17:00N 53°54' E 009°09'2 4.8
2017-Nov-17 16:31N 53°56' E 009°12'3 6.7
2017-Nov-17 16:00N 53°58' E 009°16'3 6.5
2017-Nov-17 15:30N 54°01' E 009°18'3 6.5
2017-Nov-17 15:01N 54°04' E 009°19'4 7.0
2017-Nov-17 14:29N 54°08' E 009°20'3 6.5
2017-Nov-17 14:01N 54°10' E 009°24'3 6.8
2017-Nov-17 13:30N 54°11' E 009°30'2 4.6
2017-Nov-17 13:00N 54°12' E 009°33'1 1.2
2017-Nov-17 12:30N 54°12' E 009°34'3 5.7
2017-Nov-17 12:00N 54°15' E 009°37'3 5.9
2017-Nov-17 11:30N 54°17' E 009°39'3 5.5
2017-Nov-17 11:00N 54°19' E 009°43'3 6.8
2017-Nov-17 10:30N 54°21' E 009°47'3 6.0
2017-Nov-17 09:56N 54°21' E 009°53'0 0.2
2017-Nov-17 09:28N 54°21' E 009°53'22 3.6
2017-Nov-17 03:20N 54°32' E 010°26'411.4
2017-Nov-17 02:59N 54°34' E 010°32'511.3
2017-Nov-17 02:31N 54°35' E 010°41'611.5
2017-Nov-17 02:00N 54°35' E 010°51'611.4
2017-Nov-17 01:30N 54°36' E 011°01'611.3
2017-Nov-17 01:00N 54°36' E 011°11'611.1
2017-Nov-17 00:30N 54°33' E 011°19'611.2
2017-Nov-17 00:01N 54°31' E 011°28'611.5
2017-Nov-16 23:30N 54°29' E 011°37'611.3
2017-Nov-16 23:00N 54°26' E 011°46'511.0
2017-Nov-16 22:31N 54°26' E 011°55'511.0
2017-Nov-16 22:00N 54°26' E 012°05'7310.6
2017-Nov-16 15:08N 55°02' E 013°55'1011.1
2017-Nov-16 14:15N 55°07' E 014°09'411.5
2017-Nov-16 13:53N 55°10' E 014°14'511.5
2017-Nov-16 13:26N 55°14' E 014°20'511.6
2017-Nov-16 12:58N 55°19' E 014°26'511.8
2017-Nov-16 12:31N 55°23' E 014°31'611.5
2017-Nov-16 11:57N 55°27' E 014°40'511.6
2017-Nov-16 11:30N 55°30' E 014°48'611.5
2017-Nov-16 10:59N 55°32' E 014°57'511.4
2017-Nov-16 10:30N 55°34' E 015°06'611.6
2017-Nov-16 10:00N 55°37' E 015°16'611.6
2017-Nov-16 09:30N 55°38' E 015°26'611.9
2017-Nov-16 09:00N 55°40' E 015°36'611.9
2017-Nov-16 08:30N 55°41' E 015°46'612.2
2017-Nov-16 08:00N 55°43' E 015°56'612.4
2017-Nov-16 07:31N 55°44' E 016°07'612.2
2017-Nov-16 07:00N 55°46' E 016°18'611.7
2017-Nov-16 06:31N 55°47' E 016°28'611.6
2017-Nov-16 05:59N 55°49' E 016°38'1511.6
2017-Nov-16 04:43N 55°49' E 017°04'1311.5
2017-Nov-16 03:38N 55°48' E 017°27'  

Dump ship's entire track history